createdAt,value
2018-08-17T00:00:33.231Z,24.57
2018-08-17T00:03:01.819Z,20.83
2018-08-17T00:05:30.243Z,21.67
2018-08-17T00:07:58.646Z,19.97
2018-08-17T00:10:27.811Z,20.37
2018-08-17T00:12:56.191Z,21.77
2018-08-17T00:15:24.744Z,19.37
2018-08-17T00:17:53.203Z,24.00
2018-08-17T00:20:21.643Z,23.17
2018-08-17T00:22:50.153Z,22.83
2018-08-17T00:25:18.526Z,22.67
2018-08-17T00:27:46.918Z,20.07
2018-08-17T00:30:15.291Z,19.63
2018-08-17T00:32:43.667Z,23.60
2018-08-17T00:35:12.047Z,21.37
2018-08-17T00:37:40.422Z,21.27
2018-08-17T00:40:08.823Z,21.83
2018-08-17T00:42:37.299Z,21.60
2018-08-17T00:45:06.195Z,23.50
2018-08-17T00:47:34.610Z,22.47
2018-08-17T00:50:03.144Z,24.00
2018-08-17T00:52:31.528Z,22.57
2018-08-17T00:55:00.033Z,23.83
2018-08-17T00:57:28.949Z,20.17
2018-08-17T00:59:57.455Z,20.70
2018-08-17T01:02:25.974Z,20.37
2018-08-17T01:04:54.459Z,21.50
2018-08-17T01:07:22.822Z,22.67
2018-08-17T01:09:51.199Z,23.30
2018-08-17T01:12:19.712Z,22.10
2018-08-17T01:14:48.087Z,20.20
2018-08-17T01:17:16.446Z,20.60
2018-08-17T01:19:44.815Z,20.97
2018-08-17T01:22:13.173Z,23.43
2018-08-17T01:24:41.555Z,22.40
2018-08-17T01:27:09.928Z,22.50
2018-08-17T01:29:38.291Z,27.17
2018-08-17T01:32:06.734Z,22.23
2018-08-17T01:34:35.095Z,23.30
2018-08-17T01:37:03.460Z,21.57
2018-08-17T01:39:31.830Z,24.90
2018-08-17T01:42:00.187Z,21.47
2018-08-17T01:44:28.638Z,20.93
2018-08-17T01:46:57.071Z,23.20
2018-08-17T01:49:25.491Z,22.03
2018-08-17T01:51:53.835Z,26.63
2018-08-17T01:54:22.200Z,22.03
2018-08-17T01:56:50.689Z,21.50
2018-08-17T01:59:19.083Z,22.87
2018-08-17T02:01:47.672Z,22.20
2018-08-17T02:04:16.043Z,21.60
2018-08-17T02:06:44.397Z,20.50
2018-08-17T02:09:13.014Z,19.30
2018-08-17T02:11:47.628Z,18.90
2018-08-17T02:14:16.007Z,20.57
2018-08-17T02:16:44.351Z,21.50
2018-08-17T02:19:13.669Z,20.73
2018-08-17T02:21:42.035Z,21.33
2018-08-17T02:24:10.432Z,21.57
2018-08-17T02:26:38.807Z,22.23
2018-08-17T02:29:07.227Z,22.10
2018-08-17T02:31:35.577Z,21.80
2018-08-17T02:34:03.943Z,21.50
2018-08-17T02:36:32.285Z,20.53
2018-08-17T02:39:00.644Z,22.80
2018-08-17T02:41:28.988Z,22.13
2018-08-17T02:43:57.363Z,24.80
2018-08-17T02:46:25.695Z,22.40
2018-08-17T02:48:54.263Z,22.97
2018-08-17T02:51:22.658Z,23.23
2018-08-17T02:53:51.079Z,22.83
2018-08-17T02:56:19.419Z,22.37
2018-08-17T02:58:47.778Z,22.67
2018-08-17T03:01:16.144Z,20.63
2018-08-17T03:03:44.487Z,22.13
2018-08-17T03:06:12.859Z,18.97
2018-08-17T03:08:41.220Z,21.80
2018-08-17T03:11:09.599Z,18.47
2018-08-17T03:13:37.943Z,18.20
2018-08-17T03:16:06.413Z,19.50
2018-08-17T03:18:34.762Z,21.00
2018-08-17T03:21:03.219Z,23.40
2018-08-17T03:23:31.567Z,20.23
2018-08-17T03:25:59.967Z,22.67
2018-08-17T03:28:28.331Z,19.70
2018-08-17T03:30:56.699Z,24.87
2018-08-17T03:33:25.052Z,21.70
2018-08-17T03:35:53.448Z,22.73
2018-08-17T03:38:21.819Z,23.43
2018-08-17T03:40:50.468Z,21.43
2018-08-17T03:43:18.885Z,20.50
2018-08-17T03:45:47.242Z,24.70
2018-08-17T03:48:15.614Z,25.40
2018-08-17T03:50:44.023Z,30.53
2018-08-17T03:53:12.371Z,28.07
2018-08-17T03:55:40.732Z,31.30
2018-08-17T03:58:09.083Z,33.13
2018-08-17T04:00:37.463Z,35.80
2018-08-17T04:03:05.843Z,31.07
2018-08-17T04:05:34.207Z,34.47
2018-08-17T04:08:02.589Z,34.87
2018-08-17T04:10:31.017Z,34.43
2018-08-17T04:12:59.381Z,34.77
2018-08-17T04:15:27.862Z,33.03
2018-08-17T04:17:56.147Z,34.87
2018-08-17T04:20:24.510Z,34.43
2018-08-17T04:22:52.850Z,34.53
2018-08-17T04:25:21.437Z,32.53
2018-08-17T04:27:50.043Z,36.47
2018-08-17T04:30:18.422Z,45.80
2018-08-17T04:32:46.771Z,40.17
2018-08-17T04:35:15.153Z,34.90
2018-08-17T04:37:43.758Z,36.47
2018-08-17T04:40:12.835Z,34.17
2018-08-17T04:42:42.059Z,36.90
2018-08-17T04:45:10.459Z,34.80
2018-08-17T04:47:38.996Z,36.33
2018-08-17T04:50:08.690Z,37.43
2018-08-17T04:52:37.439Z,32.50
2018-08-17T04:55:06.171Z,31.83
2018-08-17T04:57:34.710Z,31.20
2018-08-17T05:00:04.395Z,32.50
2018-08-17T05:02:33.311Z,32.13
2018-08-17T05:05:02.005Z,27.13
2018-08-17T05:07:31.258Z,28.17
2018-08-17T05:10:01.007Z,29.50
2018-08-17T05:12:29.389Z,27.80
2018-08-17T05:14:57.838Z,21.07
2018-08-17T05:17:26.256Z,20.13
2018-08-17T05:19:55.078Z,28.00
2018-08-17T05:22:24.163Z,24.37
2018-08-17T05:24:52.562Z,24.47
2018-08-17T05:27:22.991Z,23.73
2018-08-17T05:29:52.300Z,21.37
2018-08-17T05:32:20.779Z,23.43
2018-08-17T05:34:49.151Z,18.43
2018-08-17T05:37:17.589Z,20.47
2018-08-17T05:39:45.959Z,19.67
2018-08-17T05:42:14.352Z,16.27
2018-08-17T05:44:42.748Z,15.20
2018-08-17T05:47:11.132Z,14.17
2018-08-17T05:49:39.582Z,19.53
2018-08-17T05:52:07.998Z,18.97
2018-08-17T05:54:36.358Z,14.27
2018-08-17T05:57:04.781Z,14.33
2018-08-17T05:59:33.147Z,14.23
2018-08-17T06:02:01.842Z,14.97
2018-08-17T06:04:30.207Z,12.37
2018-08-17T06:06:58.671Z,13.73
2018-08-17T06:09:27.067Z,10.00
2018-08-17T06:11:55.451Z,11.43
2018-08-17T06:14:23.819Z,10.93
2018-08-17T06:16:52.215Z,9.27
2018-08-17T06:19:20.598Z,9.00
2018-08-17T06:21:49.011Z,9.07
2018-08-17T06:24:17.395Z,8.00
2018-08-17T06:26:45.819Z,7.60
2018-08-17T06:29:14.183Z,7.33
2018-08-17T06:31:42.551Z,9.53
2018-08-17T06:34:10.922Z,7.00
2018-08-17T06:36:39.304Z,8.13
2018-08-17T06:39:09.823Z,6.70
2018-08-17T06:41:43.895Z,8.57
2018-08-17T06:44:12.301Z,7.13
2018-08-17T06:46:40.679Z,10.80
2018-08-17T06:49:09.051Z,7.20
2018-08-17T06:51:37.386Z,11.47
2018-08-17T06:54:05.991Z,9.10
2018-08-17T06:56:34.327Z,5.03
2018-08-17T06:59:02.718Z,5.10
2018-08-17T07:01:31.099Z,4.33
2018-08-17T07:03:59.507Z,5.00
2018-08-17T07:06:27.895Z,6.23
2018-08-17T07:08:56.304Z,6.53
2018-08-17T07:11:24.616Z,7.00
2018-08-17T07:13:52.952Z,5.00
2018-08-17T07:16:21.306Z,3.27
2018-08-17T07:18:49.900Z,7.20
2018-08-17T07:21:18.266Z,5.50
2018-08-17T07:23:46.609Z,8.30
2018-08-17T07:26:15.030Z,7.77
2018-08-17T07:28:43.387Z,8.80
2018-08-17T07:31:11.798Z,8.50
2018-08-17T07:33:40.243Z,9.37
2018-08-17T07:36:08.619Z,11.57
2018-08-17T07:38:36.971Z,11.20
2018-08-17T07:41:05.390Z,12.90
2018-08-17T07:43:33.753Z,11.07
2018-08-17T07:46:02.131Z,11.90
2018-08-17T07:48:30.891Z,8.20
2018-08-17T07:50:59.329Z,13.23
2018-08-17T07:53:27.826Z,12.43
2018-08-17T07:55:56.264Z,13.50
2018-08-17T07:58:24.668Z,12.30
2018-08-17T08:00:53.069Z,13.50
2018-08-17T08:03:21.455Z,12.57
2018-08-17T08:05:49.895Z,15.60
2018-08-17T08:08:18.253Z,13.67
2018-08-17T08:10:46.639Z,13.70
2018-08-17T08:13:15.000Z,12.67
2018-08-17T08:15:43.382Z,9.20
2018-08-17T08:18:11.830Z,12.47
2018-08-17T08:20:42.486Z,9.10
2018-08-17T08:23:26.045Z,10.17
2018-08-17T08:25:54.885Z,8.20
2018-08-17T08:28:23.463Z,9.00
2018-08-17T08:30:51.891Z,8.20
2018-08-17T08:33:20.574Z,8.13
2018-08-17T08:35:49.611Z,8.43
2018-08-17T08:38:18.307Z,7.60
2018-08-17T08:40:47.291Z,10.60
2018-08-17T08:43:15.735Z,9.90
2018-08-17T08:45:44.220Z,10.40
2018-08-17T08:48:12.611Z,8.73
2018-08-17T08:50:41.003Z,8.80
2018-08-17T08:53:09.886Z,9.30
2018-08-17T08:55:38.388Z,9.33
2018-08-17T08:58:06.836Z,8.13
2018-08-17T09:00:35.208Z,8.03
2018-08-17T09:03:03.613Z,7.00
2018-08-17T09:05:31.978Z,8.77
2018-08-17T09:08:00.560Z,8.67
2018-08-17T09:10:28.939Z,6.60
2018-08-17T09:12:57.352Z,6.10
2018-08-17T09:15:25.690Z,7.33
2018-08-17T09:17:54.072Z,8.07
2018-08-17T09:20:24.415Z,8.00
2018-08-17T09:22:52.834Z,9.23
2018-08-17T09:25:21.175Z,8.10
2018-08-17T09:27:49.535Z,8.07
2018-08-17T09:30:18.016Z,6.70
2018-08-17T09:32:46.295Z,8.53
2018-08-17T09:35:14.723Z,7.27
2018-08-17T09:37:43.134Z,9.63
2018-08-17T09:40:12.010Z,7.40
2018-08-17T09:42:40.391Z,7.67
2018-08-17T09:45:10.360Z,5.60
2018-08-17T09:47:38.743Z,6.70
2018-08-17T09:50:09.211Z,5.70
2018-08-17T09:52:37.746Z,6.20
2018-08-17T09:55:06.163Z,6.10
2018-08-17T09:57:34.641Z,4.40
2018-08-17T10:00:03.551Z,4.67
2018-08-17T10:02:37.327Z,3.27
2018-08-17T10:05:11.003Z,5.80
2018-08-17T10:07:44.855Z,4.97
2018-08-17T10:10:17.283Z,3.97
2018-08-17T10:12:46.375Z,4.27
2018-08-17T10:15:14.775Z,5.40
2018-08-17T10:17:43.167Z,4.90
2018-08-17T10:20:14.821Z,3.83
2018-08-17T10:22:43.375Z,4.90
2018-08-17T10:25:15.495Z,5.20
2018-08-17T10:27:45.000Z,6.93
2018-08-17T10:30:13.363Z,7.10
2018-08-17T10:33:12.784Z,7.00
2018-08-17T10:35:41.143Z,6.53
2018-08-17T10:38:09.555Z,7.57
2018-08-17T10:40:38.015Z,8.57
2018-08-17T10:43:06.995Z,9.77
2018-08-17T10:45:41.651Z,9.23
2018-08-17T10:48:10.079Z,9.67
2018-08-17T10:50:39.161Z,10.90
2018-08-17T10:53:07.571Z,11.17
2018-08-17T10:55:42.171Z,11.60
2018-08-17T10:58:12.589Z,13.50
2018-08-17T11:00:40.983Z,14.27
2018-08-17T11:03:09.732Z,16.00
2018-08-17T11:05:38.131Z,19.50
2018-08-17T11:08:06.670Z,22.13
2018-08-17T11:10:35.206Z,22.10
2018-08-17T11:13:03.696Z,25.90
2018-08-17T11:15:32.135Z,22.70
2018-08-17T11:18:00.583Z,22.50
2018-08-17T11:20:29.997Z,24.63
2018-08-17T11:23:04.987Z,24.43
2018-08-17T11:25:33.387Z,27.00
2018-08-17T11:28:01.760Z,28.10
2018-08-17T11:30:36.714Z,22.57
2018-08-17T11:33:05.142Z,24.23
2018-08-17T11:35:33.567Z,22.80
2018-08-17T11:38:01.968Z,22.07
2018-08-17T11:40:30.683Z,21.10
2018-08-17T11:42:59.075Z,21.60
2018-08-17T11:45:27.822Z,24.07
2018-08-17T11:47:57.452Z,24.00
2018-08-17T11:50:26.896Z,24.73
2018-08-17T11:52:58.464Z,27.57
2018-08-17T11:55:28.406Z,29.00
2018-08-17T11:57:56.844Z,31.63
2018-08-17T12:00:25.541Z,29.90
2018-08-17T12:02:54.272Z,30.03
2018-08-17T12:05:22.664Z,28.23
2018-08-17T12:07:51.003Z,26.73
2018-08-17T12:10:19.397Z,25.77
2018-08-17T12:12:47.763Z,22.97
2018-08-17T12:15:16.675Z,25.23
2018-08-17T12:17:45.047Z,23.53
2018-08-17T12:20:13.426Z,18.37
2018-08-17T12:22:41.768Z,18.73
2018-08-17T12:25:10.681Z,21.83
2018-08-17T12:27:40.358Z,18.10
2018-08-17T12:30:09.247Z,20.27
2018-08-17T12:32:37.599Z,19.13
2018-08-17T12:35:06.024Z,18.90
2018-08-17T12:37:34.983Z,20.27
2018-08-17T12:40:04.281Z,18.23
2018-08-17T12:42:35.699Z,19.03
2018-08-17T12:45:09.629Z,19.80
2018-08-17T12:47:37.998Z,18.30
2018-08-17T12:50:06.831Z,22.60
2018-08-17T12:52:35.937Z,21.83
2018-08-17T12:55:05.270Z,21.17
2018-08-17T12:57:38.804Z,21.10
2018-08-17T13:00:07.219Z,21.53
2018-08-17T13:02:35.722Z,22.20
2018-08-17T13:05:04.159Z,25.20
2018-08-17T13:07:32.526Z,25.90
2018-08-17T13:10:01.111Z,27.70
2018-08-17T13:12:29.539Z,26.20
2018-08-17T13:14:57.903Z,25.43
2018-08-17T13:17:32.096Z,23.70
2018-08-17T13:20:00.788Z,25.23
2018-08-17T13:22:29.208Z,27.67
2018-08-17T13:24:57.571Z,27.90
2018-08-17T13:27:26.399Z,28.60
2018-08-17T13:29:54.879Z,28.17
2018-08-17T13:32:23.580Z,29.43
2018-08-17T13:34:52.223Z,27.37
2018-08-17T13:37:20.606Z,29.00
2018-08-17T13:39:48.964Z,28.63
2018-08-17T13:42:17.474Z,25.60
2018-08-17T13:44:46.444Z,25.10
2018-08-17T13:47:14.862Z,21.23
2018-08-17T13:49:44.024Z,19.70
2018-08-17T13:52:12.669Z,17.57
2018-08-17T13:54:41.037Z,19.23
2018-08-17T13:57:09.399Z,17.10
2018-08-17T13:59:37.756Z,16.17
2018-08-17T14:02:06.196Z,14.60
2018-08-17T14:04:34.574Z,14.70
2018-08-17T14:07:03.761Z,14.17
2018-08-17T14:09:32.400Z,13.37
2018-08-17T14:12:00.828Z,12.17
2018-08-17T14:14:29.219Z,14.20
2018-08-17T14:16:57.787Z,13.33
2018-08-17T14:19:26.589Z,11.67
2018-08-17T14:21:55.339Z,12.77
2018-08-17T14:24:23.906Z,11.77
2018-08-17T14:26:52.287Z,12.07
2018-08-17T14:29:21.412Z,12.03
2018-08-17T14:31:49.976Z,15.63
2018-08-17T14:34:18.388Z,14.77
2018-08-17T14:36:47.016Z,13.63
2018-08-17T14:39:15.395Z,14.60
2018-08-17T14:41:55.333Z,14.00
2018-08-17T14:44:24.767Z,13.90
2018-08-17T14:46:53.973Z,12.30
2018-08-17T14:49:23.393Z,13.20
2018-08-17T14:51:55.705Z,11.40
2018-08-17T14:54:24.062Z,10.17
2018-08-17T14:56:52.406Z,10.40
2018-08-17T14:59:20.795Z,9.30
2018-08-17T15:01:49.131Z,10.47
2018-08-17T15:04:17.618Z,11.37
2018-08-17T15:06:46.735Z,10.90
2018-08-17T15:09:15.328Z,10.57
2018-08-17T15:11:44.444Z,9.97
2018-08-17T15:14:14.178Z,10.07
2018-08-17T15:16:43.243Z,9.30
2018-08-17T15:19:11.784Z,9.30
2018-08-17T15:21:40.399Z,9.60
2018-08-17T15:24:09.078Z,10.93
2018-08-17T15:26:37.679Z,11.00
2018-08-17T15:29:06.722Z,10.10
2018-08-17T15:31:35.156Z,11.63
2018-08-17T15:34:03.575Z,12.17
2018-08-17T15:36:31.942Z,12.57
2018-08-17T15:39:00.390Z,12.43
2018-08-17T15:41:29.901Z,13.17
2018-08-17T15:43:58.165Z,13.80
2018-08-17T15:46:26.943Z,12.70
2018-08-17T15:48:56.930Z,11.87
2018-08-17T15:51:25.773Z,12.53
2018-08-17T15:53:54.837Z,12.60
2018-08-17T15:56:23.270Z,11.10
2018-08-17T15:58:51.635Z,12.10
2018-08-17T16:01:20.155Z,10.73
2018-08-17T16:03:48.523Z,10.53
2018-08-17T16:06:17.235Z,13.03
2018-08-17T16:08:46.041Z,9.03
2018-08-17T16:11:14.920Z,11.63
2018-08-17T16:13:44.161Z,8.53
2018-08-17T16:16:12.904Z,9.23
2018-08-17T16:18:41.279Z,7.50
2018-08-17T16:21:09.643Z,8.40
2018-08-17T16:23:38.051Z,6.03
2018-08-17T16:26:06.428Z,6.97
2018-08-17T16:28:34.767Z,8.90
2018-08-17T16:31:03.163Z,8.23
2018-08-17T16:33:31.551Z,7.70
2018-08-17T16:36:00.073Z,6.40
2018-08-17T16:38:28.499Z,6.53
2018-08-17T16:40:56.851Z,8.63
2018-08-17T16:43:36.676Z,6.90
2018-08-17T16:46:05.139Z,14.10
2018-08-17T16:48:33.475Z,6.30
2018-08-17T16:51:01.881Z,8.07
2018-08-17T16:53:30.235Z,8.17
2018-08-17T16:55:58.599Z,7.60
2018-08-17T16:58:26.950Z,6.30
2018-08-17T17:00:55.408Z,8.63
2018-08-17T17:03:23.711Z,8.60
2018-08-17T17:05:56.307Z,9.53
2018-08-17T17:08:24.660Z,9.50
2018-08-17T17:10:53.038Z,7.87
2018-08-17T17:13:21.384Z,11.17
2018-08-17T17:15:49.766Z,9.23
2018-08-17T17:18:18.153Z,8.80
2018-08-17T17:20:46.745Z,10.70
2018-08-17T17:23:15.039Z,13.83
2018-08-17T17:25:43.407Z,9.63
2018-08-17T17:28:11.752Z,9.57
2018-08-17T17:30:53.333Z,14.10
2018-08-17T17:33:24.959Z,11.47
2018-08-17T17:35:53.371Z,10.20
2018-08-17T17:38:21.765Z,7.70
2018-08-17T17:40:50.191Z,8.97
2018-08-17T17:43:18.824Z,9.10
2018-08-17T17:45:47.203Z,9.63
2018-08-17T17:48:15.550Z,7.33
2018-08-17T17:50:43.950Z,9.93
2018-08-17T17:53:12.306Z,7.70
2018-08-17T17:55:45.755Z,7.60
2018-08-17T17:58:14.487Z,8.97
2018-08-17T18:00:52.756Z,12.17
2018-08-17T18:03:21.107Z,7.40
2018-08-17T18:05:49.470Z,10.83
2018-08-17T18:08:17.893Z,8.53
2018-08-17T18:10:46.702Z,9.10
2018-08-17T18:13:15.075Z,8.63
2018-08-17T18:15:43.587Z,7.30
2018-08-17T18:18:11.956Z,7.40
2018-08-17T18:20:41.250Z,10.33
2018-08-17T18:23:09.838Z,6.83
2018-08-17T18:25:38.215Z,13.63
2018-08-17T18:28:06.820Z,9.10
2018-08-17T18:30:35.287Z,12.23
2018-08-17T18:33:03.727Z,9.10
2018-08-17T18:35:32.119Z,6.83
2018-08-17T18:38:00.583Z,7.87
2018-08-17T18:40:28.991Z,7.53
2018-08-17T18:42:57.386Z,8.00
2018-08-17T18:45:25.738Z,7.20
2018-08-17T18:47:54.126Z,12.40
2018-08-17T18:50:22.522Z,10.60
2018-08-17T18:52:51.047Z,8.87
2018-08-17T18:55:19.380Z,9.70
2018-08-17T18:57:47.891Z,7.20
2018-08-17T19:00:16.279Z,7.73
2018-08-17T19:02:44.674Z,7.33
2018-08-17T19:05:13.221Z,6.30
2018-08-17T19:07:41.632Z,7.90
2018-08-17T19:10:10.882Z,8.97
2018-08-17T19:12:39.683Z,7.70
2018-08-17T19:15:11.771Z,18.97
2018-08-17T19:17:40.628Z,10.90
2018-08-17T19:20:10.491Z,13.37
2018-08-17T19:22:40.774Z,9.60
2018-08-17T19:25:10.344Z,9.27
2018-08-17T19:27:39.635Z,14.40
2018-08-17T19:30:23.954Z,8.53
2018-08-17T19:32:54.551Z,7.53
2018-08-17T19:35:23.597Z,16.80
2018-08-17T19:37:53.281Z,9.87
2018-08-17T19:40:22.412Z,8.67
2018-08-17T19:42:50.849Z,14.07
2018-08-17T19:45:19.886Z,13.93
2018-08-17T19:47:48.479Z,13.17
2018-08-17T19:50:16.863Z,9.30
2018-08-17T19:52:45.303Z,8.97
2018-08-17T19:55:13.879Z,9.13
2018-08-17T19:57:42.270Z,11.50
2018-08-17T20:00:11.703Z,9.80
2018-08-17T20:02:40.391Z,9.30
2018-08-17T20:05:09.023Z,9.93
2018-08-17T20:07:38.348Z,10.50
2018-08-17T20:10:07.768Z,9.70
2018-08-17T20:12:36.231Z,8.97
2018-08-17T20:15:05.823Z,9.50
2018-08-17T20:17:34.255Z,9.30
2018-08-17T20:20:02.663Z,9.17
2018-08-17T20:22:31.075Z,9.33
2018-08-17T20:24:59.503Z,9.90
2018-08-17T20:27:28.213Z,9.17
2018-08-17T20:30:05.282Z,8.80
2018-08-17T20:32:33.827Z,8.10
2018-08-17T20:35:02.207Z,10.70
2018-08-17T20:37:30.635Z,8.87
2018-08-17T20:39:59.058Z,9.10
2018-08-17T20:42:28.669Z,9.53
2018-08-17T20:44:57.063Z,9.73
2018-08-17T20:47:25.531Z,9.23
2018-08-17T20:49:53.927Z,8.33
2018-08-17T20:52:22.303Z,11.37
2018-08-17T20:54:50.729Z,12.30
2018-08-17T20:57:19.188Z,11.63
2018-08-17T20:59:47.683Z,9.07
2018-08-17T21:02:16.043Z,11.43
2018-08-17T21:04:45.387Z,10.80
2018-08-17T21:07:13.881Z,8.90
2018-08-17T21:09:42.364Z,10.93
2018-08-17T21:12:10.753Z,11.73
2018-08-17T21:14:39.141Z,8.83
2018-08-17T21:17:07.606Z,7.80
2018-08-17T21:19:40.122Z,8.27
2018-08-17T21:22:09.738Z,8.20
2018-08-17T21:24:38.151Z,8.70
2018-08-17T21:27:06.519Z,10.40
2018-08-17T21:29:34.995Z,10.43
2018-08-17T21:32:03.331Z,10.83
2018-08-17T21:34:32.355Z,8.03
2018-08-17T21:37:00.782Z,9.90
2018-08-17T21:39:29.183Z,9.77
2018-08-17T21:41:57.583Z,9.63
2018-08-17T21:44:25.968Z,7.97
2018-08-17T21:46:59.740Z,9.60
2018-08-17T21:49:28.151Z,7.73
2018-08-17T21:51:58.888Z,8.67
2018-08-17T21:54:29.178Z,10.10
2018-08-17T21:56:57.803Z,10.40
2018-08-17T21:59:32.876Z,9.23
2018-08-17T22:02:02.253Z,13.70
2018-08-17T22:04:30.720Z,11.63
2018-08-17T22:07:01.784Z,9.00
2018-08-17T22:09:37.124Z,9.10
2018-08-17T22:12:06.163Z,8.70
2018-08-17T22:14:35.133Z,10.60
2018-08-17T22:17:04.294Z,8.47
2018-08-17T22:19:37.504Z,9.50
2018-08-17T22:22:07.214Z,9.70
2018-08-17T22:25:10.617Z,7.93
2018-08-17T22:27:39.287Z,9.70
2018-08-17T22:30:17.785Z,13.57
2018-08-17T22:32:46.087Z,10.20
2018-08-17T22:35:14.556Z,10.47
2018-08-17T22:37:42.963Z,11.07
2018-08-17T22:40:11.435Z,13.00
2018-08-17T22:42:39.794Z,9.37
2018-08-17T22:45:08.179Z,10.80
2018-08-17T22:47:36.558Z,12.00
2018-08-17T22:50:05.267Z,13.63
2018-08-17T22:52:34.681Z,12.13
2018-08-17T22:55:04.609Z,16.40
2018-08-17T22:57:33.154Z,10.40
2018-08-17T23:00:28.262Z,11.13
2018-08-17T23:02:58.909Z,11.10
2018-08-17T23:05:29.068Z,11.27
2018-08-17T23:07:57.455Z,11.10
2018-08-17T23:10:26.883Z,11.53
2018-08-17T23:12:56.063Z,14.80
2018-08-17T23:15:24.526Z,8.83
2018-08-17T23:17:54.904Z,9.60
2018-08-17T23:20:28.605Z,14.47
2018-08-17T23:22:58.239Z,10.50
2018-08-17T23:25:26.659Z,9.50
2018-08-17T23:27:55.146Z,10.70
2018-08-17T23:30:23.615Z,10.23
2018-08-17T23:32:52.104Z,12.57
2018-08-17T23:35:20.523Z,12.30
2018-08-17T23:37:48.938Z,10.93
2018-08-17T23:40:17.337Z,11.50
2018-08-17T23:42:45.711Z,12.93
2018-08-17T23:45:15.400Z,13.03
2018-08-17T23:47:43.924Z,9.43
2018-08-17T23:50:13.339Z,10.50
2018-08-17T23:52:42.187Z,11.63
2018-08-17T23:55:12.429Z,10.90
2018-08-17T23:57:40.806Z,10.40
